createdAt,value
2019-05-11T00:04:02.511Z,10.62
2019-05-11T00:14:36.297Z,10.71
2019-05-11T00:25:15.289Z,10.65
2019-05-11T00:35:50.625Z,10.61
2019-05-11T00:46:31.320Z,10.62
2019-05-11T00:57:14.331Z,10.62
2019-05-11T01:07:57.552Z,10.51
2019-05-11T01:18:40.595Z,10.56
2019-05-11T01:29:23.154Z,10.58
2019-05-11T01:40:05.692Z,10.43
2019-05-11T01:50:46.455Z,10.34
2019-05-11T02:01:28.246Z,10.31
2019-05-11T02:12:11.246Z,10.25
2019-05-11T02:22:55.484Z,10.24
2019-05-11T02:33:39.449Z,10.19
2019-05-11T02:44:23.246Z,10.21
2019-05-11T02:55:03.656Z,10.19
2019-05-11T03:05:41.403Z,10.18
2019-05-11T03:16:24.485Z,10.16
2019-05-11T03:27:08.608Z,10.18
2019-05-11T03:37:52.461Z,10.12
2019-05-11T03:48:36.512Z,10.04
2019-05-11T03:59:20.082Z,10.02
2019-05-11T04:09:59.481Z,9.88
2019-05-11T04:20:43.379Z,9.94
2019-05-11T04:31:28.474Z,9.90
2019-05-11T04:42:11.384Z,9.95
2019-05-11T04:52:54.325Z,10.01
2019-05-11T05:03:40.895Z,9.62
2019-05-11T05:14:22.193Z,9.65
2019-05-11T05:25:01.307Z,9.57
2019-05-11T05:35:45.518Z,9.63
2019-05-11T05:46:28.443Z,9.74
2019-05-11T05:57:11.683Z,9.67
2019-05-11T06:07:54.293Z,9.62
2019-05-11T06:18:38.401Z,9.63
2019-05-11T06:29:21.676Z,9.73
2019-05-11T06:39:52.329Z,9.82
2019-05-11T06:50:33.623Z,9.81
2019-05-11T07:01:16.727Z,9.72
2019-05-11T07:11:57.483Z,9.72
2019-05-11T07:22:37.572Z,9.73
2019-05-11T07:33:20.765Z,9.62
2019-05-11T07:44:02.537Z,9.68
2019-05-11T07:54:52.673Z,9.80
2019-05-11T08:05:28.353Z,9.91
2019-05-11T08:16:08.733Z,9.79
2019-05-11T08:26:49.995Z,10.03
2019-05-11T08:37:31.473Z,10.06
2019-05-11T08:48:15.359Z,10.22
2019-05-11T08:58:58.869Z,10.22
2019-05-11T09:09:37.828Z,10.18
2019-05-11T09:20:19.490Z,10.21
2019-05-11T09:31:00.619Z,10.34
2019-05-11T09:41:42.650Z,10.24
2019-05-11T09:52:23.490Z,10.18
2019-05-11T10:03:04.660Z,10.30
2019-05-11T10:13:44.476Z,10.22
2019-05-11T10:24:28.351Z,10.22
2019-05-11T10:35:12.801Z,10.43
2019-05-11T10:45:48.487Z,10.53
2019-05-11T10:56:30.752Z,10.62
2019-05-11T11:07:16.321Z,10.68
2019-05-11T11:17:54.504Z,10.90
2019-05-11T11:28:39.784Z,11.18
2019-05-11T11:39:22.797Z,10.98
2019-05-11T11:50:05.826Z,10.88
2019-05-11T12:00:48.303Z,11.22
2019-05-11T12:11:31.714Z,11.32
2019-05-11T12:22:12.819Z,11.24
2019-05-11T12:32:57.680Z,11.29
2019-05-11T12:43:35.023Z,11.26
2019-05-11T12:54:18.693Z,11.48
2019-05-11T13:05:00.513Z,11.85
2019-05-11T13:15:47.781Z,12.29
2019-05-11T13:26:28.926Z,12.66
2019-05-11T13:37:10.895Z,13.63
2019-05-11T13:47:52.652Z,14.10
2019-05-11T13:58:20.167Z,14.09
2019-05-11T14:08:58.946Z,13.50
2019-05-11T14:19:39.810Z,13.37
2019-05-11T14:30:15.739Z,13.18
2019-05-11T14:40:58.638Z,13.19
2019-05-11T14:51:34.877Z,13.29
2019-05-11T15:02:05.832Z,13.62
2019-05-11T15:12:45.808Z,13.39
2019-05-11T15:23:28.439Z,13.81
2019-05-11T15:34:12.964Z,14.35
2019-05-11T15:44:48.852Z,14.02
2019-05-11T15:55:33.958Z,14.22
2019-05-11T16:06:14.156Z,14.15
2019-05-11T16:16:58.430Z,14.18
2019-05-11T16:27:39.665Z,14.32
2019-05-11T16:38:22.846Z,13.89
2019-05-11T16:49:05.011Z,13.68
2019-05-11T16:59:48.415Z,13.67
2019-05-11T17:10:28.025Z,13.42
2019-05-11T17:21:07.875Z,13.35
2019-05-11T17:31:44.661Z,13.33
2019-05-11T17:42:20.700Z,13.33
2019-05-11T17:53:00.105Z,13.12
2019-05-11T18:03:45.002Z,12.96
2019-05-11T18:14:28.898Z,12.91
2019-05-11T18:25:14.048Z,12.98
2019-05-11T18:35:58.553Z,12.77
2019-05-11T18:46:39.645Z,12.58
2019-05-11T18:57:21.617Z,12.27
2019-05-11T19:07:59.742Z,12.14
2019-05-11T19:18:38.755Z,11.97
2019-05-11T19:29:18.830Z,12.03
2019-05-11T19:39:57.886Z,11.78
2019-05-11T19:50:34.773Z,11.63
2019-05-11T20:01:14.149Z,11.45
2019-05-11T20:11:51.259Z,11.17
2019-05-11T20:22:30.748Z,11.17
2019-05-11T20:33:09.169Z,11.04
2019-05-11T20:43:41.202Z,10.78
2019-05-11T20:54:23.183Z,10.47
2019-05-11T21:05:06.012Z,10.31
2019-05-11T21:15:44.838Z,10.44
2019-05-11T21:26:24.743Z,10.52
2019-05-11T21:37:07.873Z,10.41
2019-05-11T21:47:45.841Z,10.25
2019-05-11T21:58:20.932Z,10.06
2019-05-11T22:09:00.735Z,9.89
2019-05-11T22:19:40.481Z,9.63
2019-05-11T22:30:20.240Z,9.44
2019-05-11T22:41:04.945Z,9.26
2019-05-11T22:51:29.453Z,9.15
2019-05-11T23:02:10.870Z,8.96
2019-05-11T23:12:50.199Z,8.79
2019-05-11T23:23:29.960Z,8.67
2019-05-11T23:34:09.885Z,8.61
2019-05-11T23:44:49.959Z,8.45
2019-05-11T23:55:25.790Z,8.25
